Alba, Michigan
Current Conditions -  °F | °C
As of 5:15 PM on Sunday 25 Jan 2015 (Local Time) from KACB Reporting Station
Clear Clear  
Wind Chill: 18°   Ceiling: Unl
Heat Index: 18°   Visibility: 10mi
Dew Point:   Wind: 3mph
Humidity: 54%   Direction: 350°N
Pressure: 30.05"   Gusts: NA
Location:  44.97°N, 84.97°W
Report Text: KACB 252215Z AUTO 35003KT 10SM CLR M08/M16 A3005 RMK AO2 T10781156
Loading
Personal Weather Stations






























Interactive Weather Map New forecast layout! Learn more

10-Day Weather Forecast

Advertisements
Track Severe Weather on mobile